sensor_id;sensor_type;location;lat;lon;timestamp;temperature;humidity
3330;DHT22;1677;49.576;10.990;2023-06-14T00:00:35;16.70;78.90
3330;DHT22;1677;49.576;10.990;2023-06-14T00:03:01;16.50;79.30
3330;DHT22;1677;49.576;10.990;2023-06-14T00:05:29;16.40;81.20
3330;DHT22;1677;49.576;10.990;2023-06-14T00:07:55;16.30;80.10
3330;DHT22;1677;49.576;10.990;2023-06-14T00:10:20;16.30;83.30
3330;DHT22;1677;49.576;10.990;2023-06-14T00:12:46;16.20;82.90
3330;DHT22;1677;49.576;10.990;2023-06-14T00:15:11;16.00;84.60
3330;DHT22;1677;49.576;10.990;2023-06-14T00:17:37;16.10;84.90
3330;DHT22;1677;49.576;10.990;2023-06-14T00:20:04;16.00;83.80
3330;DHT22;1677;49.576;10.990;2023-06-14T00:22:33;15.80;84.50
3330;DHT22;1677;49.576;10.990;2023-06-14T00:24:58;15.80;85.70
3330;DHT22;1677;49.576;10.990;2023-06-14T00:27:24;15.80;87.10
3330;DHT22;1677;49.576;10.990;2023-06-14T00:29:50;15.90;87.10
3330;DHT22;1677;49.576;10.990;2023-06-14T00:32:15;15.70;87.80
3330;DHT22;1677;49.576;10.990;2023-06-14T00:34:41;15.50;89.30
3330;DHT22;1677;49.576;10.990;2023-06-14T00:37:06;15.50;89.90
3330;DHT22;1677;49.576;10.990;2023-06-14T00:39:32;15.50;90.00
3330;DHT22;1677;49.576;10.990;2023-06-14T00:41:57;15.40;90.30
3330;DHT22;1677;49.576;10.990;2023-06-14T00:44:24;15.30;90.80
3330;DHT22;1677;49.576;10.990;2023-06-14T00:46:50;15.20;90.70
3330;DHT22;1677;49.576;10.990;2023-06-14T00:49:15;15.30;91.00
3330;DHT22;1677;49.576;10.990;2023-06-14T00:51:42;15.30;90.70
3330;DHT22;1677;49.576;10.990;2023-06-14T00:54:07;15.40;90.80
3330;DHT22;1677;49.576;10.990;2023-06-14T00:56:35;15.40;90.60
3330;DHT22;1677;49.576;10.990;2023-06-14T00:59:00;15.60;90.80
3330;DHT22;1677;49.576;10.990;2023-06-14T01:01:27;15.60;90.60
3330;DHT22;1677;49.576;10.990;2023-06-14T01:03:53;15.40;91.40
3330;DHT22;1677;49.576;10.990;2023-06-14T01:11:54;15.00;92.60
3330;DHT22;1677;49.576;10.990;2023-06-14T01:14:24;15.10;92.80
3330;DHT22;1677;49.576;10.990;2023-06-14T01:16:50;15.10;93.60
3330;DHT22;1677;49.576;10.990;2023-06-14T01:19:18;15.00;93.30
3330;DHT22;1677;49.576;10.990;2023-06-14T01:21:44;14.70;93.60
3330;DHT22;1677;49.576;10.990;2023-06-14T01:24:09;14.60;95.10
3330;DHT22;1677;49.576;10.990;2023-06-14T01:26:36;14.40;95.50
3330;DHT22;1677;49.576;10.990;2023-06-14T01:29:03;14.30;96.40
3330;DHT22;1677;49.576;10.990;2023-06-14T01:31:29;14.20;96.10
3330;DHT22;1677;49.576;10.990;2023-06-14T01:33:54;14.30;96.30
3330;DHT22;1677;49.576;10.990;2023-06-14T01:36:20;14.20;97.10
3330;DHT22;1677;49.576;10.990;2023-06-14T01:38:48;14.20;97.20
3330;DHT22;1677;49.576;10.990;2023-06-14T01:41:15;14.10;97.00
3330;DHT22;1677;49.576;10.990;2023-06-14T01:43:41;14.20;97.00
3330;DHT22;1677;49.576;10.990;2023-06-14T01:46:07;14.30;96.80
3330;DHT22;1677;49.576;10.990;2023-06-14T01:48:33;14.20;97.10
3330;DHT22;1677;49.576;10.990;2023-06-14T01:50:59;14.20;97.50
3330;DHT22;1677;49.576;10.990;2023-06-14T01:53:25;14.10;98.10
3330;DHT22;1677;49.576;10.990;2023-06-14T01:55:50;14.00;98.20
3330;DHT22;1677;49.576;10.990;2023-06-14T01:58:19;13.90;98.50
3330;DHT22;1677;49.576;10.990;2023-06-14T02:00:44;13.80;98.80
3330;DHT22;1677;49.576;10.990;2023-06-14T02:03:10;13.80;98.90
3330;DHT22;1677;49.576;10.990;2023-06-14T02:05:37;13.80;99.60
3330;DHT22;1677;49.576;10.990;2023-06-14T02:08:04;13.80;99.90
3330;DHT22;1677;49.576;10.990;2023-06-14T02:10:29;13.80;99.90
3330;DHT22;1677;49.576;10.990;2023-06-14T02:12:55;13.80;99.90
3330;DHT22;1677;49.576;10.990;2023-06-14T02:15:20;13.70;99.90
3330;DHT22;1677;49.576;10.990;2023-06-14T02:17:47;13.50;99.90
3330;DHT22;1677;49.576;10.990;2023-06-14T02:20:12;13.40;99.90
3330;DHT22;1677;49.576;10.990;2023-06-14T02:22:38;13.40;99.90
3330;DHT22;1677;49.576;10.990;2023-06-14T02:25:03;13.40;99.90
3330;DHT22;1677;49.576;10.990;2023-06-14T02:27:29;13.50;99.90
3330;DHT22;1677;49.576;10.990;2023-06-14T02:29:55;13.50;99.90
3330;DHT22;1677;49.576;10.990;2023-06-14T02:32:20;13.40;99.90
3330;DHT22;1677;49.576;10.990;2023-06-14T02:34:46;13.30;99.90
3330;DHT22;1677;49.576;10.990;2023-06-14T02:37:18;13.40;99.90
3330;DHT22;1677;49.576;10.990;2023-06-14T02:39:43;13.40;99.90
3330;DHT22;1677;49.576;10.990;2023-06-14T02:42:08;13.40;99.90
3330;DHT22;1677;49.576;10.990;2023-06-14T02:44:34;13.50;99.90
3330;DHT22;1677;49.576;10.990;2023-06-14T02:47:01;13.60;99.90
3330;DHT22;1677;49.576;10.990;2023-06-14T02:49:26;13.50;99.90
3330;DHT22;1677;49.576;10.990;2023-06-14T02:51:52;13.40;99.90
3330;DHT22;1677;49.576;10.990;2023-06-14T02:54:17;13.50;99.90
3330;DHT22;1677;49.576;10.990;2023-06-14T02:56:43;13.50;99.90
3330;DHT22;1677;49.576;10.990;2023-06-14T02:59:08;13.70;99.90
3330;DHT22;1677;49.576;10.990;2023-06-14T03:01:34;13.80;99.90
3330;DHT22;1677;49.576;10.990;2023-06-14T03:04:00;14.20;99.80
3330;DHT22;1677;49.576;10.990;2023-06-14T03:06:27;14.50;99.30
3330;DHT22;1677;49.576;10.990;2023-06-14T03:08:55;14.30;98.90
3330;DHT22;1677;49.576;10.990;2023-06-14T03:11:22;14.40;99.00
3330;DHT22;1677;49.576;10.990;2023-06-14T03:13:47;14.20;99.10
3330;DHT22;1677;49.576;10.990;2023-06-14T03:16:13;14.00;99.30
3330;DHT22;1677;49.576;10.990;2023-06-14T03:18:39;13.90;99.80
3330;DHT22;1677;49.576;10.990;2023-06-14T03:21:04;14.00;99.70
3330;DHT22;1677;49.576;10.990;2023-06-14T03:23:30;13.70;99.90
3330;DHT22;1677;49.576;10.990;2023-06-14T03:25:56;13.60;99.90
3330;DHT22;1677;49.576;10.990;2023-06-14T03:28:22;13.60;99.90
3330;DHT22;1677;49.576;10.990;2023-06-14T03:30:47;13.60;99.90
3330;DHT22;1677;49.576;10.990;2023-06-14T03:33:13;13.60;99.90
3330;DHT22;1677;49.576;10.990;2023-06-14T03:35:38;13.80;99.90
3330;DHT22;1677;49.576;10.990;2023-06-14T03:38:04;13.70;99.90
3330;DHT22;1677;49.576;10.990;2023-06-14T03:40:30;13.90;99.90
3330;DHT22;1677;49.576;10.990;2023-06-14T03:42:56;13.70;99.90
3330;DHT22;1677;49.576;10.990;2023-06-14T03:45:21;13.70;99.90
3330;DHT22;1677;49.576;10.990;2023-06-14T03:47:47;13.70;99.90
3330;DHT22;1677;49.576;10.990;2023-06-14T03:50:12;13.70;99.90
3330;DHT22;1677;49.576;10.990;2023-06-14T03:52:38;13.60;99.90
3330;DHT22;1677;49.576;10.990;2023-06-14T03:55:04;13.50;99.90
3330;DHT22;1677;49.576;10.990;2023-06-14T03:57:29;13.60;99.90
3330;DHT22;1677;49.576;10.990;2023-06-14T03:59:55;13.60;99.90
3330;DHT22;1677;49.576;10.990;2023-06-14T04:02:21;13.80;99.90
3330;DHT22;1677;49.576;10.990;2023-06-14T04:04:47;13.80;99.90
3330;DHT22;1677;49.576;10.990;2023-06-14T04:07:14;13.80;99.90
3330;DHT22;1677;49.576;10.990;2023-06-14T04:09:40;13.80;99.90
3330;DHT22;1677;49.576;10.990;2023-06-14T04:12:06;14.00;99.90
3330;DHT22;1677;49.576;10.990;2023-06-14T04:14:31;14.20;99.90
3330;DHT22;1677;49.576;10.990;2023-06-14T04:16:58;14.20;99.90
3330;DHT22;1677;49.576;10.990;2023-06-14T04:19:23;14.40;99.90
3330;DHT22;1677;49.576;10.990;2023-06-14T04:21:49;14.50;99.50
3330;DHT22;1677;49.576;10.990;2023-06-14T04:24:15;14.70;98.70
3330;DHT22;1677;49.576;10.990;2023-06-14T04:26:41;14.40;99.00
3330;DHT22;1677;49.576;10.990;2023-06-14T04:29:12;14.30;99.80
3330;DHT22;1677;49.576;10.990;2023-06-14T04:31:42;14.40;99.90
3330;DHT22;1677;49.576;10.990;2023-06-14T04:34:07;14.70;99.90
3330;DHT22;1677;49.576;10.990;2023-06-14T04:36:33;14.80;99.30
3330;DHT22;1677;49.576;10.990;2023-06-14T04:39:07;14.90;98.90
3330;DHT22;1677;49.576;10.990;2023-06-14T04:41:33;15.00;99.20
3330;DHT22;1677;49.576;10.990;2023-06-14T04:44:00;15.20;98.50
3330;DHT22;1677;49.576;10.990;2023-06-14T04:46:30;15.20;98.50
3330;DHT22;1677;49.576;10.990;2023-06-14T04:48:57;15.30;98.20
3330;DHT22;1677;49.576;10.990;2023-06-14T04:51:23;15.40;98.20
3330;DHT22;1677;49.576;10.990;2023-06-14T04:53:57;15.50;97.80
3330;DHT22;1677;49.576;10.990;2023-06-14T04:56:23;15.40;97.80
3330;DHT22;1677;49.576;10.990;2023-06-14T04:58:50;15.50;97.90
3330;DHT22;1677;49.576;10.990;2023-06-14T05:01:15;15.70;97.70
3330;DHT22;1677;49.576;10.990;2023-06-14T05:03:41;15.80;97.50
3330;DHT22;1677;49.576;10.990;2023-06-14T05:06:10;15.90;97.80
3330;DHT22;1677;49.576;10.990;2023-06-14T05:08:36;16.10;97.90
3330;DHT22;1677;49.576;10.990;2023-06-14T05:11:02;16.20;97.90
3330;DHT22;1677;49.576;10.990;2023-06-14T05:13:27;16.20;98.10
3330;DHT22;1677;49.576;10.990;2023-06-14T05:15:53;16.20;97.90
3330;DHT22;1677;49.576;10.990;2023-06-14T05:18:19;16.10;98.10
3330;DHT22;1677;49.576;10.990;2023-06-14T05:20:45;16.40;97.80
3330;DHT22;1677;49.576;10.990;2023-06-14T05:23:11;16.60;97.10
3330;DHT22;1677;49.576;10.990;2023-06-14T05:25:41;16.70;97.50
3330;DHT22;1677;49.576;10.990;2023-06-14T05:28:07;16.90;97.20
3330;DHT22;1677;49.576;10.990;2023-06-14T05:30:32;17.00;97.10
3330;DHT22;1677;49.576;10.990;2023-06-14T05:32:58;17.00;97.10
3330;DHT22;1677;49.576;10.990;2023-06-14T05:35:24;17.10;96.90
3330;DHT22;1677;49.576;10.990;2023-06-14T05:37:52;17.30;97.20
3330;DHT22;1677;49.576;10.990;2023-06-14T05:40:17;17.40;96.70
3330;DHT22;1677;49.576;10.990;2023-06-14T05:42:43;17.40;96.50
3330;DHT22;1677;49.576;10.990;2023-06-14T05:45:09;17.10;96.70
3330;DHT22;1677;49.576;10.990;2023-06-14T05:47:34;17.10;96.90
3330;DHT22;1677;49.576;10.990;2023-06-14T05:50:00;17.10;97.90
3330;DHT22;1677;49.576;10.990;2023-06-14T05:52:25;17.00;97.90
3330;DHT22;1677;49.576;10.990;2023-06-14T05:54:51;17.00;98.10
3330;DHT22;1677;49.576;10.990;2023-06-14T05:57:17;17.10;98.20
3330;DHT22;1677;49.576;10.990;2023-06-14T05:59:45;17.00;97.40
3330;DHT22;1677;49.576;10.990;2023-06-14T06:02:10;17.20;98.30
3330;DHT22;1677;49.576;10.990;2023-06-14T06:04:36;17.40;97.40
3330;DHT22;1677;49.576;10.990;2023-06-14T06:07:01;17.40;97.30
3330;DHT22;1677;49.576;10.990;2023-06-14T06:09:27;17.50;97.70
3330;DHT22;1677;49.576;10.990;2023-06-14T06:11:52;17.70;97.60
3330;DHT22;1677;49.576;10.990;2023-06-14T06:14:18;17.80;97.20
3330;DHT22;1677;49.576;10.990;2023-06-14T06:16:43;17.90;96.50
3330;DHT22;1677;49.576;10.990;2023-06-14T06:19:09;17.90;96.10
3330;DHT22;1677;49.576;10.990;2023-06-14T06:21:34;17.90;96.10
3330;DHT22;1677;49.576;10.990;2023-06-14T06:24:00;18.00;95.90
3330;DHT22;1677;49.576;10.990;2023-06-14T06:26:30;18.00;96.00
3330;DHT22;1677;49.576;10.990;2023-06-14T06:28:56;18.00;95.80
3330;DHT22;1677;49.576;10.990;2023-06-14T06:31:22;18.20;95.70
3330;DHT22;1677;49.576;10.990;2023-06-14T06:33:48;18.20;95.30
3330;DHT22;1677;49.576;10.990;2023-06-14T06:36:13;18.40;94.70
3330;DHT22;1677;49.576;10.990;2023-06-14T06:38:39;18.40;95.40
3330;DHT22;1677;49.576;10.990;2023-06-14T06:41:04;18.70;94.90
3330;DHT22;1677;49.576;10.990;2023-06-14T06:43:30;19.00;94.90
3330;DHT22;1677;49.576;10.990;2023-06-14T06:45:55;19.40;93.50
3330;DHT22;1677;49.576;10.990;2023-06-14T06:48:20;19.50;92.70
3330;DHT22;1677;49.576;10.990;2023-06-14T06:50:46;19.80;93.40
3330;DHT22;1677;49.576;10.990;2023-06-14T06:53:11;19.90;92.00
3330;DHT22;1677;49.576;10.990;2023-06-14T06:55:37;20.00;92.00
3330;DHT22;1677;49.576;10.990;2023-06-14T06:58:02;20.10;92.30
3330;DHT22;1677;49.576;10.990;2023-06-14T07:00:30;20.10;91.40
3330;DHT22;1677;49.576;10.990;2023-06-14T07:02:55;19.80;90.40
3330;DHT22;1677;49.576;10.990;2023-06-14T07:05:22;19.60;90.10
3330;DHT22;1677;49.576;10.990;2023-06-14T07:07:47;19.60;91.20
3330;DHT22;1677;49.576;10.990;2023-06-14T07:10:13;19.90;90.80
3330;DHT22;1677;49.576;10.990;2023-06-14T07:12:38;19.70;89.00
3330;DHT22;1677;49.576;10.990;2023-06-14T07:15:05;19.60;89.40
3330;DHT22;1677;49.576;10.990;2023-06-14T07:17:31;19.80;88.40
3330;DHT22;1677;49.576;10.990;2023-06-14T07:19:57;19.90;87.90
3330;DHT22;1677;49.576;10.990;2023-06-14T07:22:23;20.20;88.40
3330;DHT22;1677;49.576;10.990;2023-06-14T07:24:48;20.40;86.80
3330;DHT22;1677;49.576;10.990;2023-06-14T07:27:14;20.60;87.00
3330;DHT22;1677;49.576;10.990;2023-06-14T07:29:39;20.60;86.00
3330;DHT22;1677;49.576;10.990;2023-06-14T07:32:05;20.30;85.00
3330;DHT22;1677;49.576;10.990;2023-06-14T07:34:31;20.20;86.20
3330;DHT22;1677;49.576;10.990;2023-06-14T07:36:56;20.10;87.60
3330;DHT22;1677;49.576;10.990;2023-06-14T07:39:22;20.20;87.00
3330;DHT22;1677;49.576;10.990;2023-06-14T07:41:48;20.50;89.10
3330;DHT22;1677;49.576;10.990;2023-06-14T07:44:13;21.00;87.70
3330;DHT22;1677;49.576;10.990;2023-06-14T07:46:39;21.20;88.40
3330;DHT22;1677;49.576;10.990;2023-06-14T07:49:05;21.50;83.80
3330;DHT22;1677;49.576;10.990;2023-06-14T07:51:31;21.80;82.00
3330;DHT22;1677;49.576;10.990;2023-06-14T07:53:58;22.00;80.00
3330;DHT22;1677;49.576;10.990;2023-06-14T07:56:26;22.20;81.50
3330;DHT22;1677;49.576;10.990;2023-06-14T07:58:51;22.60;79.70
3330;DHT22;1677;49.576;10.990;2023-06-14T08:01:17;22.70;75.60
3330;DHT22;1677;49.576;10.990;2023-06-14T08:03:43;22.50;74.80
3330;DHT22;1677;49.576;10.990;2023-06-14T08:06:08;22.30;74.80
3330;DHT22;1677;49.576;10.990;2023-06-14T08:08:33;21.90;73.10
3330;DHT22;1677;49.576;10.990;2023-06-14T08:10:59;21.70;74.40
3330;DHT22;1677;49.576;10.990;2023-06-14T08:13:24;21.50;74.10
3330;DHT22;1677;49.576;10.990;2023-06-14T08:15:50;21.90;78.00
3330;DHT22;1677;49.576;10.990;2023-06-14T08:18:16;22.50;74.60
3330;DHT22;1677;49.576;10.990;2023-06-14T08:20:41;23.00;70.80
3330;DHT22;1677;49.576;10.990;2023-06-14T08:23:07;23.20;68.60
3330;DHT22;1677;49.576;10.990;2023-06-14T08:25:34;23.30;68.30
3330;DHT22;1677;49.576;10.990;2023-06-14T08:28:00;23.50;69.80
3330;DHT22;1677;49.576;10.990;2023-06-14T08:30:26;23.50;69.00
3330;DHT22;1677;49.576;10.990;2023-06-14T08:32:51;23.70;69.90
3330;DHT22;1677;49.576;10.990;2023-06-14T08:35:17;24.00;69.40
3330;DHT22;1677;49.576;10.990;2023-06-14T08:37:43;24.60;69.70
3330;DHT22;1677;49.576;10.990;2023-06-14T08:40:30;25.10;68.90
3330;DHT22;1677;49.576;10.990;2023-06-14T08:42:54;25.60;62.10
3330;DHT22;1677;49.576;10.990;2023-06-14T08:45:21;26.00;59.70
3330;DHT22;1677;49.576;10.990;2023-06-14T08:47:47;26.00;56.60
3330;DHT22;1677;49.576;10.990;2023-06-14T08:50:19;26.10;56.10
3330;DHT22;1677;49.576;10.990;2023-06-14T08:52:45;26.20;56.40
3330;DHT22;1677;49.576;10.990;2023-06-14T08:55:15;25.90;58.60
3330;DHT22;1677;49.576;10.990;2023-06-14T08:57:43;26.00;56.70
3330;DHT22;1677;49.576;10.990;2023-06-14T09:00:09;26.40;58.60
3330;DHT22;1677;49.576;10.990;2023-06-14T09:02:39;26.70;53.50
3330;DHT22;1677;49.576;10.990;2023-06-14T09:05:11;26.60;52.00
3330;DHT22;1677;49.576;10.990;2023-06-14T09:07:41;26.60;50.10
3330;DHT22;1677;49.576;10.990;2023-06-14T09:10:14;26.40;50.80
3330;DHT22;1677;49.576;10.990;2023-06-14T09:12:40;25.60;51.60
3330;DHT22;1677;49.576;10.990;2023-06-14T09:15:06;25.20;52.20
3330;DHT22;1677;49.576;10.990;2023-06-14T09:17:36;24.70;53.00
3330;DHT22;1677;49.576;10.990;2023-06-14T09:20:05;24.60;54.80
3330;DHT22;1677;49.576;10.990;2023-06-14T09:22:31;25.00;53.20
3330;DHT22;1677;49.576;10.990;2023-06-14T09:24:57;25.40;54.70
3330;DHT22;1677;49.576;10.990;2023-06-14T09:27:23;25.30;53.80
3330;DHT22;1677;49.576;10.990;2023-06-14T09:29:50;24.60;53.80
3330;DHT22;1677;49.576;10.990;2023-06-14T09:32:15;24.30;53.50
3330;DHT22;1677;49.576;10.990;2023-06-14T09:34:41;23.90;53.20
3330;DHT22;1677;49.576;10.990;2023-06-14T09:37:06;24.20;52.10
3330;DHT22;1677;49.576;10.990;2023-06-14T09:39:32;24.00;52.60
3330;DHT22;1677;49.576;10.990;2023-06-14T09:41:57;24.20;54.30
3330;DHT22;1677;49.576;10.990;2023-06-14T09:44:23;24.20;53.70
3330;DHT22;1677;49.576;10.990;2023-06-14T09:46:53;24.50;54.50
3330;DHT22;1677;49.576;10.990;2023-06-14T09:49:20;24.70;52.80
3330;DHT22;1677;49.576;10.990;2023-06-14T09:51:46;24.40;51.20
3330;DHT22;1677;49.576;10.990;2023-06-14T09:54:16;24.50;53.30
3330;DHT22;1677;49.576;10.990;2023-06-14T09:56:42;24.90;52.30
3330;DHT22;1677;49.576;10.990;2023-06-14T09:59:09;25.20;50.70
3330;DHT22;1677;49.576;10.990;2023-06-14T10:01:35;25.10;49.50
3330;DHT22;1677;49.576;10.990;2023-06-14T10:04:06;24.90;49.30
3330;DHT22;1677;49.576;10.990;2023-06-14T10:06:34;25.40;48.80
3330;DHT22;1677;49.576;10.990;2023-06-14T10:09:02;25.60;48.50
3330;DHT22;1677;49.576;10.990;2023-06-14T10:11:28;25.70;48.90
3330;DHT22;1677;49.576;10.990;2023-06-14T10:13:54;25.40;48.80
3330;DHT22;1677;49.576;10.990;2023-06-14T10:18:51;25.40;48.40
3330;DHT22;1677;49.576;10.990;2023-06-14T10:21:36;25.10;48.10
3330;DHT22;1677;49.576;10.990;2023-06-14T10:24:04;25.10;51.10
3330;DHT22;1677;49.576;10.990;2023-06-14T10:26:30;25.10;48.30
3330;DHT22;1677;49.576;10.990;2023-06-14T10:29:08;24.90;50.20
3330;DHT22;1677;49.576;10.990;2023-06-14T10:31:41;25.10;50.40
3330;DHT22;1677;49.576;10.990;2023-06-14T10:34:07;25.10;49.20
3330;DHT22;1677;49.576;10.990;2023-06-14T10:36:33;24.90;50.30
3330;DHT22;1677;49.576;10.990;2023-06-14T10:39:16;25.10;49.90
3330;DHT22;1677;49.576;10.990;2023-06-14T10:41:42;25.30;49.70
3330;DHT22;1677;49.576;10.990;2023-06-14T10:46:52;25.30;47.80
3330;DHT22;1677;49.576;10.990;2023-06-14T10:49:18;25.30;48.00
3330;DHT22;1677;49.576;10.990;2023-06-14T10:51:49;25.60;46.40
3330;DHT22;1677;49.576;10.990;2023-06-14T10:54:21;25.80;47.10
3330;DHT22;1677;49.576;10.990;2023-06-14T10:59:13;27.80;43.90
3330;DHT22;1677;49.576;10.990;2023-06-14T11:01:58;28.40;39.30
3330;DHT22;1677;49.576;10.990;2023-06-14T11:04:49;28.90;41.30
3330;DHT22;1677;49.576;10.990;2023-06-14T11:10:05;29.10;43.90
3330;DHT22;1677;49.576;10.990;2023-06-14T11:12:31;29.20;40.80
3330;DHT22;1677;49.576;10.990;2023-06-14T11:14:57;29.10;40.40
3330;DHT22;1677;49.576;10.990;2023-06-14T11:17:22;28.60;39.90
3330;DHT22;1677;49.576;10.990;2023-06-14T11:19:48;28.60;39.90
3330;DHT22;1677;49.576;10.990;2023-06-14T11:22:13;28.80;41.80
3330;DHT22;1677;49.576;10.990;2023-06-14T11:24:40;29.80;40.20
3330;DHT22;1677;49.576;10.990;2023-06-14T11:27:05;30.00;39.60
3330;DHT22;1677;49.576;10.990;2023-06-14T11:29:31;30.20;39.20
3330;DHT22;1677;49.576;10.990;2023-06-14T11:31:57;30.10;38.70
3330;DHT22;1677;49.576;10.990;2023-06-14T11:34:22;29.20;37.40
3330;DHT22;1677;49.576;10.990;2023-06-14T11:36:48;28.30;39.80
3330;DHT22;1677;49.576;10.990;2023-06-14T11:39:13;27.40;41.20
3330;DHT22;1677;49.576;10.990;2023-06-14T11:41:40;27.00;41.30
3330;DHT22;1677;49.576;10.990;2023-06-14T11:44:06;27.20;42.10
3330;DHT22;1677;49.576;10.990;2023-06-14T11:46:32;27.50;41.90
3330;DHT22;1677;49.576;10.990;2023-06-14T11:48:57;28.50;39.70
3330;DHT22;1677;49.576;10.990;2023-06-14T11:51:23;29.40;38.30
3330;DHT22;1677;49.576;10.990;2023-06-14T11:53:49;30.40;37.10
3330;DHT22;1677;49.576;10.990;2023-06-14T11:56:14;30.20;34.60
3330;DHT22;1677;49.576;10.990;2023-06-14T11:58:42;29.70;37.80
3330;DHT22;1677;49.576;10.990;2023-06-14T12:01:07;29.50;36.20
3330;DHT22;1677;49.576;10.990;2023-06-14T12:03:33;28.80;37.70
3330;DHT22;1677;49.576;10.990;2023-06-14T12:06:05;29.00;39.70
3330;DHT22;1677;49.576;10.990;2023-06-14T12:08:35;29.90;37.40
3330;DHT22;1677;49.576;10.990;2023-06-14T12:11:13;30.70;36.70
3330;DHT22;1677;49.576;10.990;2023-06-14T12:13:39;30.80;34.40
3330;DHT22;1677;49.576;10.990;2023-06-14T12:16:12;30.30;36.20
3330;DHT22;1677;49.576;10.990;2023-06-14T12:18:37;29.90;37.40
3330;DHT22;1677;49.576;10.990;2023-06-14T12:21:04;29.70;35.80
3330;DHT22;1677;49.576;10.990;2023-06-14T12:26:04;29.30;38.00
3330;DHT22;1677;49.576;10.990;2023-06-14T12:28:31;28.80;38.80
3330;DHT22;1677;49.576;10.990;2023-06-14T12:30:57;29.00;37.70
3330;DHT22;1677;49.576;10.990;2023-06-14T12:33:24;29.10;35.90
3330;DHT22;1677;49.576;10.990;2023-06-14T12:35:50;29.30;35.10
3330;DHT22;1677;49.576;10.990;2023-06-14T12:38:15;29.70;37.80
3330;DHT22;1677;49.576;10.990;2023-06-14T12:40:41;29.70;35.20
3330;DHT22;1677;49.576;10.990;2023-06-14T12:43:07;29.60;35.00
3330;DHT22;1677;49.576;10.990;2023-06-14T12:45:33;29.20;32.40
3330;DHT22;1677;49.576;10.990;2023-06-14T12:47:58;29.10;32.70
3330;DHT22;1677;49.576;10.990;2023-06-14T12:50:24;29.00;32.90
3330;DHT22;1677;49.576;10.990;2023-06-14T12:52:49;29.00;34.20
3330;DHT22;1677;49.576;10.990;2023-06-14T12:55:15;28.90;35.40
3330;DHT22;1677;49.576;10.990;2023-06-14T12:57:40;28.90;35.50
3330;DHT22;1677;49.576;10.990;2023-06-14T13:00:06;29.10;34.70
3330;DHT22;1677;49.576;10.990;2023-06-14T13:02:32;28.90;34.00
3330;DHT22;1677;49.576;10.990;2023-06-14T13:04:58;28.60;34.00
3330;DHT22;1677;49.576;10.990;2023-06-14T13:07:24;28.30;35.10
3330;DHT22;1677;49.576;10.990;2023-06-14T13:09:50;28.00;37.00
3330;DHT22;1677;49.576;10.990;2023-06-14T13:12:15;27.60;35.60
3330;DHT22;1677;49.576;10.990;2023-06-14T13:14:41;27.90;35.50
3330;DHT22;1677;49.576;10.990;2023-06-14T13:17:10;27.90;35.80
3330;DHT22;1677;49.576;10.990;2023-06-14T13:19:35;27.70;36.00
3330;DHT22;1677;49.576;10.990;2023-06-14T13:22:01;27.50;35.70
3330;DHT22;1677;49.576;10.990;2023-06-14T13:24:26;27.40;36.50
3330;DHT22;1677;49.576;10.990;2023-06-14T13:26:52;27.80;35.90
3330;DHT22;1677;49.576;10.990;2023-06-14T13:29:17;28.50;36.90
3330;DHT22;1677;49.576;10.990;2023-06-14T13:31:43;28.90;36.60
3330;DHT22;1677;49.576;10.990;2023-06-14T13:34:08;28.90;36.00
3330;DHT22;1677;49.576;10.990;2023-06-14T13:36:34;28.60;34.90
3330;DHT22;1677;49.576;10.990;2023-06-14T13:39:00;27.90;34.30
3330;DHT22;1677;49.576;10.990;2023-06-14T13:41:25;27.50;34.60
3330;DHT22;1677;49.576;10.990;2023-06-14T13:43:57;27.30;36.40
3330;DHT22;1677;49.576;10.990;2023-06-14T13:46:22;27.10;35.70
3330;DHT22;1677;49.576;10.990;2023-06-14T13:48:48;27.00;38.10
3330;DHT22;1677;49.576;10.990;2023-06-14T13:51:13;27.00;37.00
3330;DHT22;1677;49.576;10.990;2023-06-14T13:53:38;26.90;37.20
3330;DHT22;1677;49.576;10.990;2023-06-14T13:56:04;27.00;36.70
3330;DHT22;1677;49.576;10.990;2023-06-14T13:58:30;27.30;37.50
3330;DHT22;1677;49.576;10.990;2023-06-14T14:00:55;26.90;34.40
3330;DHT22;1677;49.576;10.990;2023-06-14T14:03:21;26.90;34.90
3330;DHT22;1677;49.576;10.990;2023-06-14T14:05:46;27.10;36.00
3330;DHT22;1677;49.576;10.990;2023-06-14T14:08:12;27.10;35.00
3330;DHT22;1677;49.576;10.990;2023-06-14T14:10:38;27.30;36.90
3330;DHT22;1677;49.576;10.990;2023-06-14T14:13:03;27.40;37.30
3330;DHT22;1677;49.576;10.990;2023-06-14T14:15:29;27.60;37.90
3330;DHT22;1677;49.576;10.990;2023-06-14T14:17:55;27.60;35.00
3330;DHT22;1677;49.576;10.990;2023-06-14T14:20:22;27.40;35.80
3330;DHT22;1677;49.576;10.990;2023-06-14T14:22:48;27.40;37.50
3330;DHT22;1677;49.576;10.990;2023-06-14T14:25:13;27.30;37.20
3330;DHT22;1677;49.576;10.990;2023-06-14T14:27:39;27.30;35.90
3330;DHT22;1677;49.576;10.990;2023-06-14T14:30:05;27.20;36.90
3330;DHT22;1677;49.576;10.990;2023-06-14T14:32:31;26.80;35.50
3330;DHT22;1677;49.576;10.990;2023-06-14T14:34:56;26.70;34.90
3330;DHT22;1677;49.576;10.990;2023-06-14T14:37:22;26.60;36.60
3330;DHT22;1677;49.576;10.990;2023-06-14T14:39:47;26.90;36.10
3330;DHT22;1677;49.576;10.990;2023-06-14T14:42:13;27.30;36.40
3330;DHT22;1677;49.576;10.990;2023-06-14T14:44:38;27.40;35.60
3330;DHT22;1677;49.576;10.990;2023-06-14T14:47:04;27.20;36.10
3330;DHT22;1677;49.576;10.990;2023-06-14T14:49:30;27.00;37.40
3330;DHT22;1677;49.576;10.990;2023-06-14T14:51:56;27.10;38.70
3330;DHT22;1677;49.576;10.990;2023-06-14T14:54:21;27.00;39.80
3330;DHT22;1677;49.576;10.990;2023-06-14T14:56:47;26.80;39.10
3330;DHT22;1677;49.576;10.990;2023-06-14T14:59:12;26.60;39.50
3330;DHT22;1677;49.576;10.990;2023-06-14T15:01:38;26.60;38.80
3330;DHT22;1677;49.576;10.990;2023-06-14T15:04:03;26.50;39.80
3330;DHT22;1677;49.576;10.990;2023-06-14T15:06:29;26.40;40.40
3330;DHT22;1677;49.576;10.990;2023-06-14T15:08:55;26.40;39.90
3330;DHT22;1677;49.576;10.990;2023-06-14T15:11:20;26.40;38.90
3330;DHT22;1677;49.576;10.990;2023-06-14T15:13:46;26.30;38.00
3330;DHT22;1677;49.576;10.990;2023-06-14T15:16:12;25.90;38.10
3330;DHT22;1677;49.576;10.990;2023-06-14T15:18:38;25.70;38.80
3330;DHT22;1677;49.576;10.990;2023-06-14T15:21:03;25.60;39.40
3330;DHT22;1677;49.576;10.990;2023-06-14T15:23:28;25.50;39.00
3330;DHT22;1677;49.576;10.990;2023-06-14T15:25:54;25.60;39.00
3330;DHT22;1677;49.576;10.990;2023-06-14T15:28:20;25.80;39.10
3330;DHT22;1677;49.576;10.990;2023-06-14T15:30:46;25.80;39.50
3330;DHT22;1677;49.576;10.990;2023-06-14T15:33:12;25.80;40.50
3330;DHT22;1677;49.576;10.990;2023-06-14T15:35:37;25.90;39.20
3330;DHT22;1677;49.576;10.990;2023-06-14T15:38:03;26.00;39.90
3330;DHT22;1677;49.576;10.990;2023-06-14T15:40:28;26.20;40.50
3330;DHT22;1677;49.576;10.990;2023-06-14T15:42:54;26.30;40.30
3330;DHT22;1677;49.576;10.990;2023-06-14T15:45:19;26.50;41.30
3330;DHT22;1677;49.576;10.990;2023-06-14T15:47:45;26.40;39.40
3330;DHT22;1677;49.576;10.990;2023-06-14T15:50:10;26.00;40.20
3330;DHT22;1677;49.576;10.990;2023-06-14T15:52:37;25.80;40.20
3330;DHT22;1677;49.576;10.990;2023-06-14T15:55:02;25.60;40.70
3330;DHT22;1677;49.576;10.990;2023-06-14T15:57:29;25.60;40.50